Time;durP1;ratioP1;P1;durP2;ratioP2;P2;SDS_P1;SDS_P2;PMS_P1;PMS_P2;Temp;Humidity;BMP_temperature;BMP_pressure;BME280_temperature;BME280_humidity;BME280_pressure;Samples;Min_cycle;Max_cycle;Signal;HPM_P1;HPM_P2
2021/10/14 00:02:18;;;;;;;8.38;5.03;;;5.80;99.90;;;;;;5015682;28;20054;-91
2021/10/14 00:04:45;;;;;;;9.10;5.38;;;5.90;99.90;;;;;;5016442;28;20137;-91
2021/10/14 00:07:12;;;;;;;10.00;6.20;;;5.90;99.90;;;;;;5015116;28;20546;-90
2021/10/14 00:09:39;;;;;;;8.60;5.40;;;5.90;99.90;;;;;;5014735;28;20145;-91
2021/10/14 00:12:05;;;;;;;8.82;5.80;;;6.00;99.90;;;;;;5015142;28;20050;-91
2021/10/14 00:14:33;;;;;;;8.93;5.45;;;6.00;99.90;;;;;;5015075;28;20050;-91
2021/10/14 00:16:59;;;;;;;9.40;5.57;;;6.00;99.90;;;;;;5015225;28;20057;-91
2021/10/14 00:19:26;;;;;;;8.25;5.72;;;6.00;99.90;;;;;;5014925;28;20566;-92
2021/10/14 00:21:53;;;;;;;7.95;5.50;;;6.00;99.90;;;;;;5015775;28;20062;-93
2021/10/14 00:24:19;;;;;;;9.05;5.20;;;6.00;99.90;;;;;;5014776;28;20162;-93
2021/10/14 00:26:46;;;;;;;9.35;5.85;;;6.10;99.90;;;;;;5014649;28;20111;-92
2021/10/14 00:29:13;;;;;;;10.38;5.53;;;6.00;99.90;;;;;;5015746;28;20080;-92
2021/10/14 00:31:40;;;;;;;7.63;5.30;;;6.00;99.90;;;;;;5014424;28;20046;-91
2021/10/14 00:34:07;;;;;;;6.85;4.65;;;6.00;99.90;;;;;;5015636;28;20113;-92
2021/10/14 00:36:33;;;;;;;5.70;5.10;;;5.90;99.90;;;;;;5014708;28;20050;-92
2021/10/14 00:39:00;;;;;;;5.30;4.80;;;6.00;99.90;;;;;;5014079;28;20068;-93
2021/10/14 00:41:27;;;;;;;7.53;5.60;;;6.00;99.90;;;;;;5014367;28;20419;-92
2021/10/14 00:43:58;;;;;;;11.90;6.20;;;6.10;99.90;;;;;;5015611;28;20046;-92
2021/10/14 00:46:25;;;;;;;9.27;5.15;;;6.10;99.90;;;;;;5015492;28;20050;-92
2021/10/14 00:48:52;;;;;;;8.98;5.95;;;6.10;99.90;;;;;;5015486;28;20483;-92
2021/10/14 00:51:19;;;;;;;7.80;4.80;;;6.10;99.90;;;;;;5025702;28;20121;-92
2021/10/14 00:53:46;;;;;;;6.45;4.78;;;6.00;99.90;;;;;;5028401;28;20136;-92
2021/10/14 00:56:15;;;;;;;6.70;5.10;;;6.10;99.90;;;;;;5015005;28;20050;-93
2021/10/14 00:58:42;;;;;;;8.73;5.25;;;6.10;99.90;;;;;;5014265;28;20052;-92
2021/10/14 01:01:08;;;;;;;6.57;4.85;;;6.20;99.90;;;;;;5015278;28;20072;-93
2021/10/14 01:03:36;;;;;;;5.38;4.88;;;6.20;99.90;;;;;;5013718;28;20046;-92
2021/10/14 01:06:03;;;;;;;10.15;4.82;;;6.20;99.90;;;;;;5015211;28;20415;-93
2021/10/14 01:08:30;;;;;;;6.07;4.90;;;6.20;99.90;;;;;;5014859;28;20050;-93
2021/10/14 01:10:56;;;;;;;6.60;4.57;;;6.20;99.90;;;;;;5014987;28;20064;-93
2021/10/14 01:13:23;;;;;;;7.47;5.00;;;6.20;99.90;;;;;;5014020;28;20081;-93
2021/10/14 01:15:50;;;;;;;5.68;4.72;;;6.20;99.90;;;;;;5013717;28;20060;-93
2021/10/14 01:18:17;;;;;;;11.52;5.30;;;6.20;99.90;;;;;;5014874;28;20048;-93
2021/10/14 01:20:44;;;;;;;9.88;5.53;;;6.20;99.90;;;;;;5014936;28;20137;-93
2021/10/14 01:23:12;;;;;;;7.35;4.78;;;6.10;99.90;;;;;;5014056;28;20049;-94
2021/10/14 01:25:44;;;;;;;7.18;5.18;;;6.10;99.90;;;;;;5014918;28;20074;-93
2021/10/14 01:28:10;;;;;;;5.95;4.93;;;6.20;99.90;;;;;;5017656;28;20060;-93
2021/10/14 01:30:37;;;;;;;7.28;5.25;;;6.20;99.90;;;;;;5014473;28;20053;-93
2021/10/14 01:33:24;;;;;;;6.70;4.75;;;6.20;99.90;;;;;;5014862;28;20049;-93
2021/10/14 01:35:51;;;;;;;5.65;4.35;;;6.30;99.90;;;;;;5013129;28;20064;-93
2021/10/14 01:38:18;;;;;;;5.28;4.78;;;6.20;99.90;;;;;;5013507;28;20052;-93
2021/10/14 01:40:45;;;;;;;5.53;4.63;;;6.20;99.90;;;;;;5014510;28;20053;-93
2021/10/14 01:43:13;;;;;;;5.22;4.82;;;6.20;99.90;;;;;;5013468;28;20042;-93
2021/10/14 01:45:41;;;;;;;7.75;4.93;;;6.30;99.90;;;;;;5013196;28;20053;-93
2021/10/14 01:48:07;;;;;;;10.60;4.78;;;6.20;99.90;;;;;;5014660;28;20057;-93
2021/10/14 01:50:34;;;;;;;5.07;4.57;;;6.20;99.90;;;;;;5012640;28;20053;-93
2021/10/14 01:53:01;;;;;;;8.15;5.13;;;6.20;99.90;;;;;;5013832;28;20054;-94
2021/10/14 01:55:28;;;;;;;11.73;5.00;;;6.20;99.90;;;;;;5013237;28;20042;-95
2021/10/14 01:57:54;;;;;;;6.28;5.03;;;6.30;99.90;;;;;;5013549;28;20052;-95
2021/10/14 02:00:21;;;;;;;6.30;4.80;;;6.30;99.90;;;;;;5013547;28;20490;-95
2021/10/14 02:02:48;;;;;;;7.13;4.60;;;6.30;99.90;;;;;;5013448;28;20073;-95
2021/10/14 02:05:15;;;;;;;7.07;4.60;;;6.30;99.90;;;;;;5013758;28;20104;-95
2021/10/14 02:07:42;;;;;;;7.28;6.45;;;6.40;99.90;;;;;;5018995;28;20134;-95
2021/10/14 02:10:09;;;;;;;8.93;5.72;;;6.30;99.90;;;;;;5032735;28;20109;-95
2021/10/14 02:12:36;;;;;;;6.53;5.53;;;6.30;99.90;;;;;;5018402;28;20172;-94
2021/10/14 02:15:04;;;;;;;6.93;5.35;;;6.30;99.90;;;;;;5013148;28;20145;-95
2021/10/14 02:17:30;;;;;;;6.15;5.55;;;6.30;99.90;;;;;;5012872;28;20453;-95
2021/10/14 02:19:57;;;;;;;8.77;6.10;;;6.40;99.90;;;;;;5012962;28;20137;-95
2021/10/14 02:22:24;;;;;;;11.30;5.43;;;6.40;99.90;;;;;;5013857;28;20041;-95
2021/10/14 02:24:50;;;;;;;7.40;5.07;;;6.40;99.90;;;;;;5012660;28;20048;-95
2021/10/14 02:27:17;;;;;;;6.53;5.35;;;6.40;99.90;;;;;;5012940;28;20497;-95
2021/10/14 02:29:44;;;;;;;7.03;5.28;;;6.50;99.90;;;;;;5012770;28;20046;-95
2021/10/14 02:32:11;;;;;;;7.10;4.95;;;6.50;99.90;;;;;;5013099;28;20054;-94
2021/10/14 02:34:37;;;;;;;6.18;4.70;;;6.40;99.90;;;;;;5013646;28;20046;-94
2021/10/14 02:37:04;;;;;;;6.45;4.57;;;6.40;99.90;;;;;;5013554;28;20054;-95
2021/10/14 02:39:31;;;;;;;4.97;4.43;;;6.50;99.90;;;;;;5012608;28;20140;-95
2021/10/14 02:41:58;;;;;;;7.97;4.90;;;6.50;99.90;;;;;;5012974;28;20137;-95
2021/10/14 02:44:24;;;;;;;8.77;4.90;;;6.40;99.90;;;;;;5013522;28;20483;-95
2021/10/14 02:46:53;;;;;;;7.53;5.63;;;6.40;99.90;;;;;;5013644;28;20096;-95
2021/10/14 02:49:20;;;;;;;5.85;4.97;;;6.40;99.90;;;;;;5012943;28;20066;-95
2021/10/14 02:51:47;;;;;;;6.18;4.60;;;6.40;99.90;;;;;;5013034;28;20061;-95
2021/10/14 02:54:13;;;;;;;7.15;5.22;;;6.40;99.90;;;;;;5012935;28;20050;-95
2021/10/14 02:56:40;;;;;;;5.60;5.00;;;6.40;99.90;;;;;;5012989;28;20053;-95
2021/10/14 02:59:07;;;;;;;9.80;5.88;;;6.50;99.90;;;;;;5014021;28;20479;-95
2021/10/14 03:01:34;;;;;;;8.18;5.10;;;6.40;99.90;;;;;;5014729;28;20415;-95
2021/10/14 03:04:01;;;;;;;7.22;5.05;;;6.50;99.90;;;;;;5017378;28;20409;-94
2021/10/14 03:06:27;;;;;;;7.93;4.68;;;6.50;99.90;;;;;;5017365;28;20483;-95
2021/10/14 03:08:54;;;;;;;10.38;5.57;;;6.50;99.90;;;;;;5016353;28;20172;-95
2021/10/14 03:11:21;;;;;;;8.70;4.95;;;6.50;99.90;;;;;;5016619;28;20050;-96
2021/10/14 03:13:48;;;;;;;9.43;5.20;;;6.50;99.90;;;;;;5016310;28;20056;-96
2021/10/14 03:16:14;;;;;;;5.10;4.60;;;6.50;99.90;;;;;;5015799;28;20494;-95
2021/10/14 03:18:42;;;;;;;5.25;4.75;;;6.60;99.90;;;;;;5017559;28;20056;-95
2021/10/14 03:21:10;;;;;;;6.50;4.57;;;6.50;99.90;;;;;;5017330;28;20052;-95
2021/10/14 03:23:37;;;;;;;7.28;5.45;;;6.60;99.90;;;;;;5017551;28;20052;-94
2021/10/14 03:26:04;;;;;;;6.00;4.75;;;6.50;99.90;;;;;;5018346;28;20056;-94
2021/10/14 03:28:31;;;;;;;4.78;4.30;;;6.60;99.90;;;;;;5034709;28;20065;-91
2021/10/14 03:30:58;;;;;;;5.65;4.82;;;6.60;99.90;;;;;;5017513;28;20137;-93
2021/10/14 03:33:25;;;;;;;5.53;5.10;;;6.60;99.90;;;;;;5016091;28;20161;-94
2021/10/14 03:35:52;;;;;;;7.85;5.47;;;6.60;99.90;;;;;;5018934;28;20064;-94
2021/10/14 03:38:19;;;;;;;5.85;4.82;;;6.60;99.90;;;;;;5017013;28;20056;-94
2021/10/14 03:40:45;;;;;;;5.85;4.25;;;6.60;99.90;;;;;;5015596;28;20062;-93
2021/10/14 03:43:12;;;;;;;8.10;5.88;;;6.60;99.90;;;;;;5015852;28;20128;-93
2021/10/14 03:45:40;;;;;;;7.13;5.28;;;6.60;99.90;;;;;;5015404;28;20101;-94
2021/10/14 03:48:06;;;;;;;9.80;6.10;;;6.60;99.90;;;;;;5015572;28;20133;-94
2021/10/14 03:50:33;;;;;;;6.38;5.18;;;6.60;99.90;;;;;;5015893;28;20133;-93
2021/10/14 03:53:00;;;;;;;6.82;5.32;;;6.60;99.90;;;;;;5015466;28;20050;-93
2021/10/14 03:55:27;;;;;;;5.32;4.82;;;6.50;99.90;;;;;;5014983;28;20050;-92
2021/10/14 03:57:55;;;;;;;14.20;6.20;;;6.50;99.90;;;;;;5016403;28;20052;-93
2021/10/14 04:00:22;;;;;;;9.13;5.53;;;6.50;99.90;;;;;;5015268;28;20066;-94
2021/10/14 04:02:49;;;;;;;10.02;6.22;;;6.50;99.90;;;;;;5018713;28;20045;-94
2021/10/14 04:05:19;;;;;;;5.68;5.13;;;6.50;99.90;;;;;;5018977;28;20070;-94
2021/10/14 04:07:46;;;;;;;8.40;5.65;;;6.50;99.90;;;;;;5015915;28;20123;-93
2021/10/14 04:10:14;;;;;;;6.53;5.30;;;6.50;99.90;;;;;;5015197;28;20505;-94
2021/10/14 04:12:42;;;;;;;9.57;6.47;;;6.60;99.90;;;;;;5013996;28;20050;-94
2021/10/14 04:15:09;;;;;;;10.18;6.30;;;6.50;99.90;;;;;;5015714;28;20053;-93
2021/10/14 04:17:36;;;;;;;8.18;6.63;;;6.50;99.90;;;;;;5014919;28;20048;-92
2021/10/14 04:20:04;;;;;;;10.07;7.07;;;6.50;99.90;;;;;;5016024;28;20062;-92
2021/10/14 04:22:31;;;;;;;5.70;5.18;;;6.50;99.90;;;;;;5015921;28;20081;-93
2021/10/14 04:24:57;;;;;;;7.18;5.53;;;6.60;99.90;;;;;;5014777;28;20081;-94
2021/10/14 04:27:24;;;;;;;7.55;5.20;;;6.60;99.90;;;;;;5015915;28;20049;-93
2021/10/14 04:29:51;;;;;;;7.68;5.50;;;6.70;99.90;;;;;;5014819;28;20552;-94
2021/10/14 04:32:18;;;;;;;5.88;5.25;;;6.70;99.90;;;;;;5015008;28;20449;-93
2021/10/14 04:34:44;;;;;;;7.15;5.30;;;6.70;99.90;;;;;;5014568;28;20050;-93
2021/10/14 04:37:11;;;;;;;5.88;5.28;;;6.70;99.90;;;;;;5014743;28;20140;-94
2021/10/14 04:39:38;;;;;;;5.88;5.30;;;6.80;99.90;;;;;;5014483;28;20045;-93
2021/10/14 04:42:06;;;;;;;7.15;5.28;;;6.70;99.90;;;;;;5015321;28;20052;-92
2021/10/14 04:44:34;;;;;;;6.10;5.22;;;6.80;99.90;;;;;;5023805;28;20056;-93
2021/10/14 04:47:02;;;;;;;7.20;4.65;;;6.70;99.90;;;;;;5030652;28;20085;-92
2021/10/14 04:49:29;;;;;;;11.35;6.35;;;6.80;99.90;;;;;;5014758;28;20056;-93
2021/10/14 04:51:57;;;;;;;8.60;5.30;;;6.80;99.90;;;;;;5015198;28;20060;-94
2021/10/14 04:54:23;;;;;;;7.80;5.32;;;6.80;99.90;;;;;;5015432;28;20068;-95
2021/10/14 04:56:50;;;;;;;5.72;5.22;;;6.80;99.90;;;;;;5014892;28;20046;-95
2021/10/14 04:59:17;;;;;;;6.10;5.60;;;6.80;99.90;;;;;;5014614;28;20609;-95
2021/10/14 05:01:44;;;;;;;8.00;6.20;;;6.80;99.90;;;;;;5013810;28;20054;-96
2021/10/14 05:04:13;;;;;;;7.32;5.22;;;6.80;99.90;;;;;;5015107;28;20063;-95
2021/10/14 05:06:40;;;;;;;7.57;5.40;;;6.80;99.90;;;;;;5014056;28;20045;-95
2021/10/14 05:09:07;;;;;;;7.38;6.22;;;6.90;99.90;;;;;;5014919;28;20414;-96
2021/10/14 05:11:33;;;;;;;5.97;5.13;;;6.90;99.90;;;;;;5014266;28;20060;-96
2021/10/14 05:14:00;;;;;;;7.80;5.65;;;6.90;99.90;;;;;;5014410;28;20133;-95
2021/10/14 05:16:32;;;;;;;6.03;4.97;;;6.90;99.90;;;;;;5014001;28;20149;-95
2021/10/14 05:19:00;;;;;;;8.68;5.65;;;6.90;99.90;;;;;;5014098;28;20074;-95
2021/10/14 05:21:27;;;;;;;10.15;6.00;;;7.00;99.90;;;;;;5013743;28;20049;-95
2021/10/14 05:23:58;;;;;;;7.53;5.95;;;6.90;99.90;;;;;;5014558;28;20052;-94
2021/10/14 05:26:30;;;;;;;7.65;5.82;;;6.90;99.90;;;;;;5013973;28;20608;-94
2021/10/14 05:28:58;;;;;;;7.20;5.50;;;6.90;99.90;;;;;;5013693;28;20049;-94
2021/10/14 05:31:27;;;;;;;6.60;5.68;;;6.90;99.90;;;;;;5013610;28;20506;-94
2021/10/14 05:33:54;;;;;;;8.48;5.90;;;7.00;99.90;;;;;;5013408;28;20104;-95
2021/10/14 05:36:22;;;;;;;6.07;5.43;;;6.90;99.90;;;;;;5014495;28;20100;-95
2021/10/14 05:38:49;;;;;;;7.53;5.93;;;7.00;99.90;;;;;;5013666;28;20073;-94
2021/10/14 05:41:16;;;;;;;8.52;6.03;;;7.00;99.90;;;;;;5013592;28;20466;-95
2021/10/14 05:43:43;;;;;;;6.53;5.68;;;7.00;99.90;;;;;;5013509;28;20046;-95
2021/10/14 05:46:10;;;;;;;9.45;6.65;;;7.10;99.90;;;;;;5013563;28;20129;-96
2021/10/14 05:48:38;;;;;;;7.68;6.35;;;7.00;99.90;;;;;;5014263;28;20058;-95
2021/10/14 05:51:05;;;;;;;19.90;14.82;;;7.00;99.90;;;;;;5013606;28;20133;-96
2021/10/14 05:53:32;;;;;;;14.63;12.55;;;7.00;99.90;;;;;;5013377;28;20136;-96
2021/10/14 05:55:59;;;;;;;14.80;12.85;;;7.00;99.90;;;;;;5014212;28;20099;-96
2021/10/14 05:58:25;;;;;;;18.48;13.48;;;7.10;99.90;;;;;;5013593;28;20077;-95
2021/10/14 06:00:52;;;;;;;13.98;11.57;;;7.10;99.90;;;;;;5016444;28;20050;-94
2021/10/14 06:03:19;;;;;;;13.20;11.38;;;7.10;99.90;;;;;;5032892;28;20037;-94
2021/10/14 06:05:46;;;;;;;23.50;17.98;;;7.20;99.90;;;;;;5014534;28;20515;-94
2021/10/14 06:08:13;;;;;;;19.02;16.25;;;7.20;99.90;;;;;;5013205;28;20081;-94
2021/10/14 06:10:40;;;;;;;19.67;14.98;;;7.10;99.90;;;;;;5013572;28;20046;-95
2021/10/14 06:13:06;;;;;;;25.77;21.33;;;7.10;99.90;;;;;;5014322;28;20111;-94
2021/10/14 06:15:34;;;;;;;31.35;25.50;;;7.10;99.90;;;;;;5012865;28;20136;-94
2021/10/14 06:18:00;;;;;;;49.70;35.97;;;7.20;99.90;;;;;;5013103;28;20050;-94
2021/10/14 06:20:27;;;;;;;272.25;215.13;;;7.20;99.90;;;;;;5013030;28;20392;-95
2021/10/14 06:22:54;;;;;;;99.60;79.15;;;7.20;99.90;;;;;;5013246;28;20447;-96
2021/10/14 06:25:21;;;;;;;74.63;58.92;;;7.20;99.90;;;;;;5012836;28;20137;-93
2021/10/14 06:27:48;;;;;;;65.60;49.80;;;7.30;99.90;;;;;;5013194;28;20104;-94
2021/10/14 06:30:15;;;;;;;34.00;23.80;;;7.40;99.90;;;;;;5013083;28;20050;-93
2021/10/14 06:32:41;;;;;;;29.02;23.98;;;7.40;99.90;;;;;;5013012;28;20132;-93
2021/10/14 06:35:09;;;;;;;28.90;21.02;;;7.40;99.90;;;;;;5012468;28;20065;-92
2021/10/14 06:37:36;;;;;;;18.52;15.50;;;7.40;99.90;;;;;;5016893;28;20050;-93
2021/10/14 06:40:03;;;;;;;16.67;13.93;;;7.40;99.90;;;;;;5016871;28;20092;-93
2021/10/14 06:42:30;;;;;;;25.55;19.02;;;7.40;99.90;;;;;;5016692;28;20049;-93
2021/10/14 06:44:57;;;;;;;19.25;14.00;;;7.40;99.90;;;;;;5016578;28;20112;-93
2021/10/14 06:47:24;;;;;;;15.70;14.07;;;7.50;99.90;;;;;;5016448;28;20054;-93
2021/10/14 06:49:50;;;;;;;9.68;8.10;;;7.50;99.90;;;;;;5016624;28;20052;-94
2021/10/14 06:52:17;;;;;;;13.40;10.05;;;7.60;99.90;;;;;;5016538;28;20056;-93
2021/10/14 06:54:44;;;;;;;13.77;10.65;;;7.60;99.90;;;;;;5016629;28;20053;-94
2021/10/14 06:57:11;;;;;;;31.48;20.65;;;7.70;99.90;;;;;;5016498;28;20088;-93
2021/10/14 06:59:38;;;;;;;37.00;24.42;;;7.70;99.90;;;;;;5016452;28;20287;-93
2021/10/14 07:02:06;;;;;;;14.52;10.77;;;7.80;99.90;;;;;;5016370;28;20132;-92
2021/10/14 07:04:33;;;;;;;13.32;10.45;;;7.80;99.90;;;;;;5017529;28;20049;-93
2021/10/14 07:07:00;;;;;;;18.73;14.00;;;7.80;99.90;;;;;;5016420;28;20050;-92
2021/10/14 07:09:26;;;;;;;31.73;21.17;;;7.80;99.90;;;;;;5016203;28;20089;-93
2021/10/14 07:11:59;;;;;;;12.80;10.77;;;7.80;99.90;;;;;;5017499;28;20058;-92
2021/10/14 07:14:26;;;;;;;12.10;9.77;;;7.80;99.90;;;;;;5017574;28;20136;-93
2021/10/14 07:16:53;;;;;;;9.52;8.68;;;7.90;99.90;;;;;;5017364;28;20054;-93
2021/10/14 07:19:20;;;;;;;15.02;13.50;;;8.00;99.90;;;;;;5029007;28;20108;-92
2021/10/14 07:21:47;;;;;;;10.15;7.78;;;8.00;99.90;;;;;;5028863;28;20554;-92
2021/10/14 07:24:16;;;;;;;8.48;7.68;;;8.10;99.90;;;;;;5016059;28;20141;-90
2021/10/14 07:26:43;;;;;;;10.57;8.68;;;8.20;99.90;;;;;;5015839;28;20410;-92
2021/10/14 07:29:10;;;;;;;11.27;10.18;;;8.30;99.90;;;;;;5016945;28;20137;-92
2021/10/14 07:31:37;;;;;;;8.52;7.60;;;8.40;99.90;;;;;;5015798;28;20461;-91
2021/10/14 07:34:03;;;;;;;9.48;8.05;;;8.40;99.90;;;;;;5016727;28;20054;-91
2021/10/14 07:36:30;;;;;;;7.97;7.13;;;8.40;99.90;;;;;;5015551;28;20491;-92
2021/10/14 07:38:58;;;;;;;9.48;7.40;;;8.50;99.90;;;;;;5015903;28;20082;-92
2021/10/14 07:41:24;;;;;;;8.70;7.43;;;8.50;99.90;;;;;;5015568;28;20050;-92
2021/10/14 07:43:51;;;;;;;6.28;5.80;;;8.50;99.90;;;;;;5015561;28;20050;-93
2021/10/14 07:46:18;;;;;;;8.25;6.90;;;8.60;99.90;;;;;;5016558;28;20046;-93
2021/10/14 07:48:45;;;;;;;6.95;6.32;;;8.60;99.90;;;;;;5015714;28;20042;-92
2021/10/14 07:51:13;;;;;;;7.88;6.10;;;8.60;99.90;;;;;;5016425;28;20057;-93
2021/10/14 07:53:40;;;;;;;5.72;5.22;;;8.70;99.90;;;;;;5016098;28;20042;-95
2021/10/14 07:56:07;;;;;;;5.88;5.32;;;8.80;99.90;;;;;;5015077;28;20105;-96
2021/10/14 07:58:33;;;;;;;7.10;5.55;;;8.90;99.90;;;;;;5015568;28;20145;-95
2021/10/14 08:01:00;;;;;;;5.60;5.10;;;9.10;99.90;;;;;;5015597;28;20064;-94
2021/10/14 08:03:27;;;;;;;4.18;3.88;;;9.20;99.90;;;;;;5015287;28;20065;-94
2021/10/14 08:05:54;;;;;;;4.82;4.30;;;9.30;99.90;;;;;;5016301;28;20510;-94
2021/10/14 08:08:21;;;;;;;7.55;5.20;;;9.40;99.90;;;;;;5015115;28;20092;-94
2021/10/14 08:10:48;;;;;;;5.75;5.25;;;9.50;99.90;;;;;;5016067;28;20058;-94
2021/10/14 08:13:16;;;;;;;7.53;6.57;;;9.50;99.90;;;;;;5015278;28;20129;-94
2021/10/14 08:15:49;;;;;;;98.72;46.47;;;9.60;99.90;;;;;;5016134;28;20107;-93
2021/10/14 08:18:20;;;;;;;204.00;111.90;;;9.50;99.90;;;;;;5022608;28;20050;-93
2021/10/14 08:20:49;;;;;;;46.75;28.75;;;9.60;99.90;;;;;;5014903;28;20034;-93
2021/10/14 08:23:17;;;;;;;7.20;5.50;;;9.90;99.90;;;;;;5014842;28;20077;-92
2021/10/14 08:25:44;;;;;;;24.15;16.65;;;9.80;99.90;;;;;;5014493;28;20505;-92
2021/10/14 08:28:10;;;;;;;2.83;2.63;;;10.00;99.90;;;;;;5017230;28;20085;-92
2021/10/14 08:30:38;;;;;;;3.33;3.13;;;10.00;99.90;;;;;;5015628;28;20479;-92
2021/10/14 08:33:05;;;;;;;6.07;4.75;;;10.20;99.90;;;;;;5015733;28;20046;-92
2021/10/14 08:35:35;;;;;;;3.42;3.22;;;10.30;99.90;;;;;;5020129;28;20084;-93
2021/10/14 08:38:07;;;;;;;2.53;2.25;;;10.30;99.90;;;;;;5035597;28;20072;-90
2021/10/14 08:40:35;;;;;;;2.30;2.10;;;10.40;99.90;;;;;;5015451;28;20105;-90
2021/10/14 08:43:12;;;;;;;2.00;1.67;;;10.40;99.90;;;;;;5015485;28;20451;-91
2021/10/14 08:45:41;;;;;;;2.42;2.22;;;10.80;99.90;;;;;;5015062;28;20049;-89
2021/10/14 08:48:09;;;;;;;1.20;1.20;;;11.20;99.90;;;;;;5015493;28;20054;-89
2021/10/14 08:50:40;;;;;;;2.28;2.13;;;11.40;99.90;;;;;;5015102;28;20052;-90
2021/10/14 08:53:07;;;;;;;1.50;1.40;;;11.60;99.90;;;;;;5016631;28;20081;-90
2021/10/14 08:55:38;;;;;;;2.17;1.40;;;11.50;99.90;;;;;;5015437;28;20053;-90
2021/10/14 08:58:09;;;;;;;1.33;1.20;;;11.60;99.90;;;;;;5014860;28;20494;-89
2021/10/14 09:00:39;;;;;;;7.60;2.40;;;11.70;99.90;;;;;;5014729;28;20050;-91
2021/10/14 09:03:26;;;;;;;3.58;2.15;;;11.60;99.90;;;;;;5015301;28;20045;-90
2021/10/14 09:05:53;;;;;;;0.85;0.70;;;11.80;99.90;;;;;;5014582;28;20058;-90
2021/10/14 09:08:39;;;;;;;5.65;2.30;;;11.90;99.90;;;;;;5015114;28;20058;-90
2021/10/14 09:11:08;;;;;;;2.35;2.03;;;11.80;99.90;;;;;;5014518;28;20054;-93
2021/10/14 09:13:36;;;;;;;2.05;1.92;;;12.00;99.90;;;;;;5014971;28;20058;-91
2021/10/14 09:16:23;;;;;;;1.20;1.20;;;12.00;99.90;;;;;;5014096;28;20052;-91
2021/10/14 09:18:51;;;;;;;1.85;1.20;;;12.40;99.90;;;;;;5014555;28;20057;-91
2021/10/14 09:21:30;;;;;;;1.33;1.23;;;12.60;99.90;;;;;;5015061;28;20490;-92
2021/10/14 09:24:00;;;;;;;1.45;1.35;;;12.70;99.90;;;;;;5014023;28;20121;-90
2021/10/14 09:26:34;;;;;;;1.23;1.13;;;12.60;99.90;;;;;;5013942;28;20417;-89
2021/10/14 09:29:10;;;;;;;2.08;1.40;;;12.60;99.90;;;;;;5014149;28;20082;-90
2021/10/14 09:31:53;;;;;;;1.60;1.45;;;12.50;99.90;;;;;;5013963;28;20137;-90
2021/10/14 09:34:23;;;;;;;0.93;0.93;;;12.10;99.90;;;;;;5014205;28;20064;-91
2021/10/14 09:36:50;;;;;;;1.55;1.10;;;12.10;99.90;;;;;;5013932;28;20060;-90
2021/10/14 09:39:17;;;;;;;1.15;1.05;;;12.10;99.90;;;;;;5014975;28;20085;-91
2021/10/14 09:41:44;;;;;;;1.40;1.02;;;12.00;99.90;;;;;;5014819;28;20140;-91
2021/10/14 09:44:49;;;;;;;0.90;0.90;;;12.00;99.90;;;;;;5014722;28;20483;-92
2021/10/14 09:47:16;;;;;;;1.17;0.93;;;12.00;99.90;;;;;;5014674;28;20053;-91
2021/10/14 09:49:43;;;;;;;0.85;0.85;;;12.00;99.90;;;;;;5013767;28;20054;-91
2021/10/14 09:52:09;;;;;;;1.30;1.15;;;12.00;99.90;;;;;;5014959;28;20076;-90
2021/10/14 09:54:36;;;;;;;1.95;1.13;;;11.90;99.90;;;;;;5026938;28;20054;-91
2021/10/14 09:57:03;;;;;;;1.55;0.90;;;11.80;99.90;;;;;;5022842;28;20121;-90
2021/10/14 09:59:30;;;;;;;8.13;4.57;;;11.70;99.90;;;;;;5013327;28;20068;-90
2021/10/14 10:02:02;;;;;;;6.43;3.75;;;11.60;99.90;;;;;;5013871;28;20092;-91
2021/10/14 10:04:30;;;;;;;3.47;2.65;;;11.60;99.90;;;;;;5013400;28;20077;-91
2021/10/14 10:06:58;;;;;;;1.45;1.27;;;11.60;99.90;;;;;;5013221;28;20092;-91
2021/10/14 10:09:32;;;;;;;5.72;2.33;;;11.50;99.90;;;;;;5013179;28;20450;-91
2021/10/14 10:12:00;;;;;;;1.80;1.52;;;11.60;99.90;;;;;;5012761;28;20046;-91
2021/10/14 10:14:27;;;;;;;1.52;1.40;;;11.60;99.90;;;;;;5012864;28;20054;-91
2021/10/14 10:16:59;;;;;;;1.50;1.40;;;11.70;99.90;;;;;;5013737;28;20495;-92
2021/10/14 10:19:47;;;;;;;1.98;1.75;;;11.60;99.90;;;;;;5012795;28;20046;-92
2021/10/14 10:22:33;;;;;;;2.30;1.70;;;11.60;99.90;;;;;;5014054;28;20112;-92
2021/10/14 10:25:25;;;;;;;1.88;1.77;;;11.40;99.90;;;;;;5013012;28;20137;-91
2021/10/14 10:27:52;;;;;;;1.80;1.70;;;11.40;99.90;;;;;;5014046;28;20076;-92
2021/10/14 10:30:27;;;;;;;1.23;1.23;;;11.40;99.90;;;;;;5012817;28;20050;-90
2021/10/14 10:32:54;;;;;;;1.95;1.45;;;11.30;99.90;;;;;;5013059;28;20054;-92
2021/10/14 10:35:44;;;;;;;1.30;1.20;;;11.30;99.90;;;;;;5013875;28;20132;-93
2021/10/14 10:38:21;;;;;;;3.20;2.10;;;11.50;99.90;;;;;;5012783;28;20050;-93
2021/10/14 10:40:50;;;;;;;1.77;1.67;;;11.70;99.90;;;;;;5013503;28;20049;-93
2021/10/14 10:43:21;;;;;;;2.10;1.27;;;11.70;99.90;;;;;;5012933;28;20085;-91
2021/10/14 10:45:52;;;;;;;1.77;0.90;;;12.00;99.90;;;;;;5012779;28;20050;-91
2021/10/14 10:48:40;;;;;;;1.00;1.00;;;12.50;99.90;;;;;;5012742;28;20054;-93
2021/10/14 10:51:09;;;;;;;1.00;1.00;;;13.00;99.90;;;;;;5012666;28;20061;-93
2021/10/14 10:53:40;;;;;;;0.95;0.95;;;13.40;99.90;;;;;;5012405;28;20081;-93
2021/10/14 10:56:25;;;;;;;0.98;0.55;;;14.00;99.90;;;;;;5012618;28;20045;-91
2021/10/14 10:58:52;;;;;;;0.80;0.80;;;14.10;99.90;;;;;;5012940;28;20116;-92
2021/10/14 11:01:19;;;;;;;0.60;0.60;;;14.00;99.90;;;;;;5013805;28;20056;-94
2021/10/14 11:03:51;;;;;;;0.50;0.50;;;14.50;99.90;;;;;;5012734;28;20469;-96
2021/10/14 11:06:18;;;;;;;0.50;0.50;;;15.60;99.90;;;;;;5011792;28;20046;-93
2021/10/14 11:08:45;;;;;;;0.50;0.50;;;16.00;99.90;;;;;;5013582;28;20117;-92
2021/10/14 11:11:18;;;;;;;0.70;0.70;;;16.40;99.90;;;;;;5019490;28;20077;-90
2021/10/14 11:13:53;;;;;;;0.30;0.30;;;16.50;99.90;;;;;;5031205;28;20081;-89
2021/10/14 11:16:27;;;;;;;0.50;0.50;;;16.40;99.90;;;;;;5012335;28;20502;-92
2021/10/14 11:18:58;;;;;;;0.50;0.50;;;16.30;99.90;;;;;;5013826;28;20053;-94
2021/10/14 11:21:39;;;;;;;0.47;0.45;;;16.90;99.90;;;;;;5012404;28;20046;-90
2021/10/14 11:24:06;;;;;;;3.17;2.90;;;16.80;99.90;;;;;;5016208;28;20054;-89
2021/10/14 11:26:37;;;;;;;1.88;1.77;;;17.20;99.90;;;;;;5016968;28;20137;-91
2021/10/14 11:29:32;;;;;;;0.47;0.47;;;17.20;99.90;;;;;;5016099;28;20077;-89
2021/10/14 11:32:03;;;;;;;0.50;0.50;;;16.80;99.90;;;;;;5016294;28;20056;-88
2021/10/14 11:34:30;;;;;;;0.45;0.45;;;17.10;99.90;;;;;;5015871;28;20050;-90
2021/10/14 11:37:01;;;;;;;1.13;0.52;;;17.10;99.90;;;;;;5016593;28;20046;-89
2021/10/14 11:39:36;;;;;;;0.30;0.30;;;17.10;99.90;;;;;;5015617;28;20060;-89
2021/10/14 11:42:09;;;;;;;0.50;0.47;;;17.40;99.90;;;;;;5016566;28;20537;-88
2021/10/14 11:44:57;;;;;;;0.32;0.32;;;17.80;99.90;;;;;;5016513;28;20049;-89
2021/10/14 11:47:25;;;;;;;0.57;0.57;;;17.30;99.90;;;;;;5015834;28;20442;-88
2021/10/14 11:50:02;;;;;;;0.30;0.30;;;17.50;99.90;;;;;;5016343;28;20052;-88
2021/10/14 11:52:29;;;;;;;0.40;0.40;;;17.20;99.90;;;;;;5015728;28;20056;-89
2021/10/14 11:55:03;;;;;;;0.38;0.30;;;17.20;99.90;;;;;;5015596;28;20513;-88
2021/10/14 11:57:31;;;;;;;1.45;0.40;;;17.00;99.90;;;;;;5015577;28;20052;-89
2021/10/14 12:00:03;;;;;;;0.60;0.60;;;16.60;99.90;;;;;;5015381;28;20487;-88
2021/10/14 12:02:31;;;;;;;1.65;1.30;;;16.30;99.90;;;;;;5015417;28;20054;-88
2021/10/14 12:05:00;;;;;;;1.27;0.70;;;15.90;99.90;;;;;;5017102;28;20049;-88
2021/10/14 12:07:29;;;;;;;1.35;1.02;;;15.40;99.90;;;;;;5016057;28;20054;-87
2021/10/14 12:09:57;;;;;;;0.55;0.55;;;14.70;99.90;;;;;;5017620;28;20153;-87
2021/10/14 12:12:29;;;;;;;3.22;0.73;;;14.20;99.90;;;;;;5016090;28;20050;-89
2021/10/14 12:15:16;;;;;;;1.00;1.00;;;14.00;99.90;;;;;;5015055;28;20414;-87
2021/10/14 12:17:44;;;;;;;0.70;0.70;;;13.50;99.90;;;;;;5014952;28;20066;-88
2021/10/14 12:20:22;;;;;;;1.00;1.00;;;13.30;99.90;;;;;;5014861;28;20124;-87
2021/10/14 12:22:52;;;;;;;1.30;1.17;;;13.10;99.90;;;;;;5016183;28;20399;-88
2021/10/14 12:25:37;;;;;;;0.70;0.70;;;13.00;99.90;;;;;;5015975;28;20137;-88
2021/10/14 12:28:06;;;;;;;1.00;1.00;;;13.00;99.90;;;;;;5020055;28;20092;-88
2021/10/14 12:30:34;;;;;;;1.75;0.77;;;13.10;99.90;;;;;;5027828;28;20045;-88
2021/10/14 12:33:10;;;;;;;0.70;0.70;;;13.20;99.90;;;;;;5017661;28;20084;-89
2021/10/14 12:35:42;;;;;;;0.60;0.60;;;13.30;99.90;;;;;;5014575;28;20422;-88
2021/10/14 12:38:14;;;;;;;0.50;0.50;;;13.30;99.90;;;;;;5015246;28;20057;-87
2021/10/14 12:40:57;;;;;;;1.00;0.65;;;13.30;99.90;;;;;;5015847;28;20187;-88
2021/10/14 12:43:30;;;;;;;0.80;0.80;;;13.30;99.90;;;;;;5015104;28;20445;-92
2021/10/14 12:46:24;;;;;;;0.73;0.73;;;13.30;99.90;;;;;;5014586;28;20050;-90
2021/10/14 12:51:48;;;;;;;0.80;0.80;;;13.30;99.90;;;;;;5015737;28;20139;-88
2021/10/14 12:54:20;;;;;;;1.17;0.60;;;13.40;99.90;;;;;;5014421;28;20050;-88
2021/10/14 12:56:49;;;;;;;0.80;0.80;;;13.40;99.90;;;;;;5014583;28;20052;-88
2021/10/14 12:59:20;;;;;;;0.95;0.95;;;13.40;99.90;;;;;;5014255;28;20100;-88
2021/10/14 13:01:48;;;;;;;1.05;1.05;;;13.40;99.90;;;;;;5015179;28;20081;-88
2021/10/14 13:04:21;;;;;;;1.80;1.70;;;13.50;99.90;;;;;;5014161;28;20487;-89